Time;durP1;ratioP1;P1;durP2;ratioP2;P2;SDS_P1;SDS_P2;PMS_P1;PMS_P2;Temp;Humidity;BMP_temperature;BMP_pressure;BME280_temperature;BME280_humidity;BME280_pressure;Samples;Min_cycle;Max_cycle;Signal;HPM_P1;HPM_P2
2020/12/13 00:02:16;;;;;;;17.40;10.95;;;;;;;5.73;100.00;97868.66;4973245;28;20031;-71
2020/12/13 00:04:42;;;;;;;15.15;11.85;;;;;;;5.58;100.00;97862.84;4972860;28;20022;-71
2020/12/13 00:07:08;;;;;;;13.60;10.55;;;;;;;5.73;100.00;97869.50;4973114;28;20081;-70
2020/12/13 00:09:33;;;;;;;15.48;11.57;;;;;;;5.77;100.00;97878.88;4972901;28;20050;-72
2020/12/13 00:12:03;;;;;;;18.00;12.65;;;;;;;5.77;100.00;97868.59;4971874;28;20033;-70
2020/12/13 00:14:29;;;;;;;;;;;;;;;5.78;100.00;97878.00;4973243;28;20029;-73
2020/12/13 00:16:54;;;;;;;15.98;13.65;;;;;;;5.75;100.00;97872.88;4972910;28;19985;-71
2020/12/13 00:19:20;;;;;;;19.90;14.35;;;;;;;5.77;100.00;97881.44;4972722;28;20057;-71
2020/12/13 00:21:49;;;;;;;16.10;12.80;;;;;;;5.78;100.00;97878.00;4972791;28;20612;-71
2020/12/13 00:24:15;;;;;;;20.85;14.43;;;;;;;5.76;100.00;97877.19;4972932;28;20031;-71
2020/12/13 00:26:41;;;;;;;20.83;13.98;;;;;;;5.69;100.00;97885.81;4972652;28;20081;-70
2020/12/13 00:29:06;;;;;;;17.02;12.75;;;;;;;5.75;100.00;97884.88;4972747;28;20067;-72
2020/12/13 00:31:32;;;;;;;17.10;13.63;;;;;;;5.75;100.00;97883.16;4972541;28;20093;-72
2020/12/13 00:33:57;;;;;;;19.13;14.68;;;;;;;5.78;100.00;97896.00;4972576;28;20033;-71
2020/12/13 00:36:22;;;;;;;21.42;15.25;;;;;;;5.76;100.00;97899.47;4972619;28;20078;-73
2020/12/13 00:38:47;;;;;;;19.42;15.90;;;;;;;5.78;100.00;97902.84;4972479;28;20027;-72
2020/12/13 00:41:13;;;;;;;22.00;15.68;;;;;;;5.81;100.00;97901.09;4971292;28;20037;-71
2020/12/13 00:43:38;;;;;;;17.83;14.15;;;;;;;5.83;100.00;97904.50;4972454;28;20038;-71
2020/12/13 00:46:03;;;;;;;17.25;14.00;;;;;;;5.83;100.00;97901.91;4972469;28;20106;-71
2020/12/13 00:48:29;;;;;;;19.70;14.70;;;;;;;5.81;100.00;97910.53;4972379;28;20045;-71
2020/12/13 00:50:54;;;;;;;21.00;14.82;;;;;;;5.83;100.00;97904.50;4972327;28;20480;-71
2020/12/13 00:53:19;;;;;;;25.42;15.43;;;;;;;5.84;100.00;97903.59;4972143;28;20023;-71
2020/12/13 00:55:47;;;;;;;21.55;15.10;;;;;;;5.89;100.00;97904.41;4972486;28;20035;-71
2020/12/13 00:58:13;;;;;;;20.80;15.32;;;;;;;5.88;100.00;97907.00;4972275;28;20484;-71
2020/12/13 08:02:13;;;;;;;8.10;6.77;;;;;;;5.91;99.81;98350.06;5197830;23;20051;-70
2020/12/13 08:04:39;;;;;;;;;;;;;;;5.84;99.80;98355.19;4954587;28;20043;-70
2020/12/13 08:07:10;;;;;;;7.30;6.38;;;;;;;5.91;99.63;98355.19;4954263;28;19915;-70
2020/12/13 08:09:38;;;;;;;7.00;5.93;;;;;;;5.97;99.35;98358.59;4954018;28;20059;-70
2020/12/13 08:12:05;;;;;;;11.15;7.07;;;;;;;5.96;99.23;98357.75;4954232;28;20023;-70
2020/12/13 08:14:30;;;;;;;9.07;6.47;;;;;;;6.12;99.10;98368.78;4954187;28;20031;-70
2020/12/13 08:16:56;;;;;;;9.55;7.38;;;;;;;6.10;98.41;98366.22;4954062;28;20027;-70
2020/12/13 08:19:44;;;;;;;16.17;9.20;;;;;;;6.04;98.34;98371.38;4953972;28;20045;-70
2020/12/13 08:22:15;;;;;;;20.13;10.00;;;;;;;6.12;98.77;98384.19;4953831;28;20110;-70
2020/12/13 08:24:43;;;;;;;16.70;9.93;;;;;;;6.26;97.80;98382.38;4953712;28;20023;-70
2020/12/13 08:27:12;;;;;;;14.52;9.90;;;;;;;6.42;96.77;98378.81;4953875;28;20035;-70
2020/12/13 08:29:38;;;;;;;13.70;8.83;;;;;;;6.57;96.71;98385.56;4953765;28;20023;-70
2020/12/13 08:32:12;;;;;;;11.75;8.80;;;;;;;6.43;95.92;98390.84;4953767;28;20580;-70
2020/12/13 08:34:37;;;;;;;11.07;8.80;;;;;;;6.25;96.51;98390.13;4953459;28;20034;-70
2020/12/13 08:37:03;;;;;;;9.07;7.53;;;;;;;6.46;96.17;98392.53;4953622;28;20027;-70
2020/12/13 08:39:31;;;;;;;10.93;8.73;;;;;;;6.32;96.87;98397.78;4953873;28;20082;-70
2020/12/13 08:42:01;;;;;;;10.23;7.90;;;;;;;6.26;97.24;98402.97;4953908;28;20030;-70
2020/12/13 08:44:34;;;;;;;13.63;8.25;;;;;;;6.11;97.43;98408.22;4953295;28;20023;-70
2020/12/13 08:47:07;;;;;;;11.38;8.82;;;;;;;6.12;98.32;98409.91;4953516;28;20370;-70
2020/12/13 08:49:35;;;;;;;10.90;9.15;;;;;;;6.17;98.34;98413.31;4953602;28;20038;-70
2020/12/13 08:52:27;;;;;;;15.77;11.18;;;;;;;6.01;99.01;98414.28;4953512;28;20027;-70
2020/12/13 08:54:53;;;;;;;18.17;9.38;;;;;;;6.09;99.05;98420.22;4953268;28;20565;-70
2020/12/13 08:57:32;;;;;;;9.90;7.70;;;;;;;6.16;99.21;98416.75;4953358;28;20394;-70
2020/12/13 09:00:08;;;;;;;9.50;8.43;;;;;;;6.27;98.67;98414.97;4953415;28;20027;-70
2020/12/13 09:02:34;;;;;;;9.05;7.65;;;;;;;6.31;98.64;98416.66;4952945;28;20035;-70
2020/12/13 09:05:00;;;;;;;9.10;8.15;;;;;;;6.29;98.35;98417.53;4953116;28;20086;-70
2020/12/13 09:07:32;;;;;;;9.25;7.22;;;;;;;6.46;98.38;98425.13;4953330;28;20421;-71
2020/12/13 09:10:09;;;;;;;10.52;6.43;;;;;;;6.60;97.84;98423.31;4953048;28;20127;-70
2020/12/13 09:12:35;;;;;;;8.48;5.93;;;;;;;6.65;96.75;98426.69;4952991;28;20031;-71
2020/12/13 09:15:12;;;;;;;6.88;6.10;;;;;;;6.60;95.89;98443.91;4953216;28;20039;-70
2020/12/13 09:17:38;;;;;;;7.47;6.10;;;;;;;6.58;96.29;98453.38;4953397;29;20030;-70
2020/12/13 09:20:04;;;;;;;7.10;6.00;;;;;;;6.51;96.67;98449.97;4953222;28;20026;-70
2020/12/13 09:22:30;;;;;;;8.30;5.93;;;;;;;6.65;96.60;98453.28;4952662;28;20031;-70
2020/12/13 09:24:57;;;;;;;6.38;5.60;;;;;;;6.55;96.46;98459.38;4953097;28;20031;-70
2020/12/13 09:27:23;;;;;;;6.85;5.93;;;;;;;6.60;96.85;98464.50;4952481;28;20511;-70
2020/12/13 09:29:50;;;;;;;8.82;6.40;;;;;;;6.61;97.21;98468.78;4952928;28;20028;-70
2020/12/13 09:32:17;;;;;;;6.72;5.40;;;;;;;6.64;97.00;98466.19;4952939;28;20089;-70
2020/12/13 09:34:43;;;;;;;12.63;7.70;;;;;;;6.71;97.23;98470.41;4952664;28;20028;-70
2020/12/13 09:37:10;;;;;;;14.48;9.07;;;;;;;6.76;97.45;98468.66;4952862;28;20031;-69
2020/12/13 09:39:36;;;;;;;12.57;8.80;;;;;;;6.83;97.21;98478.06;4952909;28;20027;-70
2020/12/13 09:42:03;;;;;;;12.48;8.45;;;;;;;6.80;96.83;98478.06;4952821;28;20645;-72
2020/12/13 09:44:28;;;;;;;9.20;6.40;;;;;;;6.94;96.02;98481.38;4952486;28;20464;-71
2020/12/13 09:46:55;;;;;;;7.65;4.40;;;;;;;6.93;95.80;98484.84;4952772;28;20039;-72
2020/12/13 09:49:21;;;;;;;4.70;4.20;;;;;;;6.93;95.99;98484.84;4952864;28;20031;-72
2020/12/13 09:51:47;;;;;;;5.22;4.72;;;;;;;6.93;95.71;98484.84;4952458;28;20024;-71
2020/12/13 09:54:12;;;;;;;7.70;5.10;;;;;;;6.97;95.60;98479.66;4952651;28;20058;-70
2020/12/13 09:56:38;;;;;;;8.27;5.18;;;;;;;6.98;96.25;98481.38;4952698;28;20059;-70
2020/12/13 09:59:03;;;;;;;9.30;5.28;;;;;;;7.13;95.31;98483.81;4952845;28;20111;-71
2020/12/13 10:01:29;;;;;;;8.07;6.50;;;;;;;7.15;95.87;98484.63;4952472;28;20034;-71
2020/12/13 10:03:55;;;;;;;8.75;5.70;;;;;;;7.23;95.56;98488.00;4952501;28;20027;-75
2020/12/13 10:09:11;;;;;;;10.68;6.95;;;;;;;7.38;94.83;98487.84;4953108;28;20023;-75
2020/12/13 10:11:39;;;;;;;8.95;6.68;;;;;;;7.46;94.44;98488.63;4952468;28;20707;-76
2020/12/13 10:14:06;;;;;;;16.80;8.68;;;;;;;7.47;93.98;98492.91;4952482;28;20480;-74
2020/12/13 10:16:33;;;;;;;7.78;5.95;;;;;;;7.65;93.19;98491.03;4952427;28;20624;-74
2020/12/13 10:18:58;;;;;;;9.98;5.55;;;;;;;7.65;92.67;98496.19;4952652;28;20468;-72
2020/12/13 10:21:25;;;;;;;12.23;5.40;;;;;;;7.67;91.91;98495.28;4952605;28;20023;-69
2020/12/13 10:23:51;;;;;;;8.50;5.43;;;;;;;7.73;92.29;98484.88;4952364;28;20059;-69
2020/12/13 10:26:17;;;;;;;6.97;4.88;;;;;;;7.94;90.30;98499.28;4952532;28;20034;-69
2020/12/13 10:28:43;;;;;;;9.73;6.25;;;;;;;7.93;91.38;98497.59;4952566;28;20027;-69
2020/12/13 10:31:14;;;;;;;8.93;6.20;;;;;;;7.88;91.24;98491.63;4952329;28;20075;-69
2020/12/13 10:33:40;;;;;;;15.75;7.30;;;;;;;7.97;90.98;98498.38;4952239;28;20030;-69
2020/12/13 10:36:07;;;;;;;6.60;4.80;;;;;;;8.09;89.89;98498.25;4952446;28;20027;-69
2020/12/13 10:38:32;;;;;;;8.63;6.03;;;;;;;7.90;89.89;98495.03;4953962;28;20023;-69
2020/12/13 10:40:58;;;;;;;20.55;10.25;;;;;;;7.91;89.33;98507.06;4955603;28;20110;-69
2020/12/13 10:43:23;;;;;;;13.20;7.07;;;;;;;7.86;90.08;98500.25;4955706;28;20094;-69
2020/12/13 10:45:48;;;;;;;7.65;5.47;;;;;;;7.98;88.16;98495.81;4955696;28;20046;-69
2020/12/13 10:48:14;;;;;;;12.63;6.05;;;;;;;7.89;89.47;98495.91;4955715;28;20035;-69
2020/12/13 10:50:39;;;;;;;12.60;6.60;;;;;;;7.95;88.71;98497.56;4955566;28;20452;-69
2020/12/13 10:53:04;;;;;;;7.72;5.55;;;;;;;8.10;88.72;98488.78;4955380;28;20061;-69
2020/12/13 10:55:30;;;;;;;38.97;13.95;;;;;;;7.98;89.84;98492.38;4955762;28;20037;-69
2020/12/13 10:57:55;;;;;;;45.75;15.13;;;;;;;7.99;88.23;98492.34;4955379;28;20536;-69
2020/12/13 11:00:23;;;;;;;21.38;10.32;;;;;;;7.92;88.31;98488.13;4955264;28;20038;-69
2020/12/13 11:02:49;;;;;;;11.10;6.45;;;;;;;8.13;87.97;98491.31;4955077;28;20015;-69
2020/12/13 11:05:14;;;;;;;7.47;5.38;;;;;;;8.30;87.01;98491.94;4955533;28;20055;-69
2020/12/13 11:07:39;;;;;;;26.33;11.25;;;;;;;7.84;87.78;98487.38;4955095;28;20540;-69
2020/12/13 11:10:05;;;;;;;37.92;13.40;;;;;;;8.07;87.30;98493.97;4955260;29;20031;-69
2020/12/13 11:12:30;;;;;;;19.40;7.78;;;;;;;8.10;87.46;98499.09;4954979;28;20031;-69
2020/12/13 11:14:55;;;;;;;23.00;9.25;;;;;;;7.95;88.92;98495.81;4955154;28;20082;-69
2020/12/13 11:17:21;;;;;;;23.80;9.48;;;;;;;8.09;87.72;98502.56;4954962;28;20477;-69
2020/12/13 11:19:46;;;;;;;41.90;15.50;;;;;;;7.92;87.94;98505.31;4955084;29;20039;-69
2020/12/13 11:22:12;;;;;;;21.15;8.85;;;;;;;8.08;86.50;98500.84;4954837;28;20492;-69
2020/12/13 11:24:37;;;;;;;22.70;10.18;;;;;;;7.88;86.03;98499.38;4954767;28;20031;-70
2020/12/13 11:27:06;;;;;;;18.42;7.30;;;;;;;8.13;85.07;98499.06;4954904;28;20039;-69
2020/12/13 11:29:32;;;;;;;14.40;6.60;;;;;;;8.29;86.04;98495.41;4954956;28;20033;-69
2020/12/13 11:31:57;;;;;;;7.05;4.97;;;;;;;8.31;86.33;98488.47;4954913;28;20023;-69
2020/12/13 11:34:22;;;;;;;12.15;7.55;;;;;;;8.64;83.66;98492.34;4954664;28;20019;-68
2020/12/13 11:36:48;;;;;;;9.40;6.30;;;;;;;9.03;81.84;98484.84;4954749;29;20037;-68
2020/12/13 11:39:13;;;;;;;7.85;4.72;;;;;;;8.91;82.94;98491.06;4954831;28;20035;-68
2020/12/13 11:41:38;;;;;;;7.95;4.78;;;;;;;9.32;79.94;98481.75;4954756;28;20102;-69
2020/12/13 11:44:04;;;;;;;9.82;5.47;;;;;;;9.37;80.98;98490.28;4954486;28;20405;-68
2020/12/13 11:46:29;;;;;;;5.88;4.95;;;;;;;9.71;77.30;98484.50;4954676;28;20039;-69
2020/12/13 11:48:54;;;;;;;9.95;6.40;;;;;;;9.50;79.39;98496.94;4954181;28;20105;-72
2020/12/13 11:51:20;;;;;;;6.72;3.83;;;;;;;9.41;78.95;98494.53;4954685;28;20432;-69
2020/12/13 11:53:45;;;;;;;4.85;3.15;;;;;;;9.49;78.42;98495.25;4954453;28;20019;-69
2020/12/13 11:56:10;;;;;;;8.27;3.35;;;;;;;9.40;79.24;98495.41;4954709;28;20027;-69
2020/12/13 11:58:36;;;;;;;4.68;3.35;;;;;;;9.24;79.48;98494.00;4954439;28;20078;-69
2020/12/13 12:01:01;;;;;;;8.63;3.35;;;;;;;9.01;79.37;98495.22;4954204;28;20035;-71
2020/12/13 12:03:26;;;;;;;3.90;3.20;;;;;;;8.91;80.70;98498.81;4954043;28;20031;-71
2020/12/13 12:05:52;;;;;;;4.03;3.13;;;;;;;8.73;82.48;98496.53;4954424;28;20039;-71
2020/12/13 12:08:17;;;;;;;6.28;3.38;;;;;;;8.86;80.96;98503.22;4954136;28;20515;-69
2020/12/13 12:10:42;;;;;;;6.82;3.45;;;;;;;8.82;80.97;98501.56;4954302;28;20393;-68
2020/12/13 12:13:08;;;;;;;7.63;3.67;;;;;;;8.79;80.92;98511.91;4953955;28;20038;-68
2020/12/13 12:15:33;;;;;;;6.93;3.28;;;;;;;8.67;80.49;98507.81;4954054;28;20592;-69
2020/12/13 12:17:58;;;;;;;3.50;2.55;;;;;;;8.36;80.47;98503.91;4954014;28;20062;-68
2020/12/13 12:20:27;;;;;;;5.28;3.15;;;;;;;8.23;81.47;98510.97;4954015;28;20050;-68
2020/12/13 12:22:54;;;;;;;4.28;2.53;;;;;;;7.90;82.58;98515.66;4954040;28;20027;-68
2020/12/13 12:25:19;;;;;;;4.57;3.15;;;;;;;7.91;83.12;98504.47;4915610;28;20043;-69
2020/12/13 12:27:45;;;;;;;3.20;2.90;;;;;;;7.71;83.85;98506.44;4963114;28;20404;-68
2020/12/13 12:30:10;;;;;;;5.55;2.65;;;;;;;7.78;84.05;98497.75;4933473;28;20042;-68
2020/12/13 12:32:36;;;;;;;3.50;2.60;;;;;;;7.85;83.68;98504.56;4964101;28;20035;-68
2020/12/13 12:35:02;;;;;;;7.28;2.78;;;;;;;7.83;84.02;98503.72;4929508;28;20042;-68
2020/12/13 12:37:27;;;;;;;5.22;2.65;;;;;;;7.94;84.90;98504.44;4960420;28;20440;-68
2020/12/13 12:39:53;;;;;;;3.38;2.50;;;;;;;8.15;82.79;98507.63;4913574;28;20063;-69
2020/12/13 12:42:18;;;;;;;3.70;2.70;;;;;;;7.96;83.62;98510.44;4965001;28;20053;-68
2020/12/13 12:44:45;;;;;;;6.10;3.25;;;;;;;7.81;83.64;98505.44;4929320;28;20023;-68
2020/12/13 12:47:11;;;;;;;4.13;2.35;;;;;;;7.92;84.59;98511.31;4958107;28;20034;-69
2020/12/13 12:49:37;;;;;;;3.83;3.03;;;;;;;7.76;84.98;98514.97;4947545;28;20584;-68
2020/12/13 12:52:03;;;;;;;7.20;2.72;;;;;;;7.79;85.45;98509.78;4936239;28;20035;-68
2020/12/13 12:54:28;;;;;;;8.60;3.22;;;;;;;7.88;83.92;98509.69;4957494;28;20407;-68
2020/12/13 12:56:53;;;;;;;8.20;3.15;;;;;;;7.63;83.68;98521.13;4949196;28;20049;-69
2020/12/13 12:59:24;;;;;;;7.15;3.25;;;;;;;7.71;84.21;98515.00;4948601;29;20027;-69
2020/12/13 13:01:52;;;;;;;6.20;2.85;;;;;;;7.39;84.96;98511.91;4926515;28;20047;-68
2020/12/13 13:04:22;;;;;;;4.65;3.03;;;;;;;7.50;87.13;98516.97;4946374;28;20020;-68
2020/12/13 13:09:18;;;;;;;3.90;2.95;;;;;;;7.67;84.44;98525.38;4939387;28;20034;-68
2020/12/13 13:11:44;;;;;;;6.85;2.90;;;;;;;7.59;85.35;98529.75;4940655;28;20412;-68
2020/12/13 13:14:10;;;;;;;3.42;2.33;;;;;;;7.77;83.57;98526.97;4952836;28;20024;-69
2020/12/13 13:16:39;;;;;;;3.42;2.97;;;;;;;7.72;84.29;98533.91;4933807;28;20461;-68
2020/12/13 13:19:12;;;;;;;5.35;3.10;;;;;;;7.54;85.30;98528.94;4953090;28;20033;-69
2020/12/13 13:21:39;;;;;;;4.55;2.97;;;;;;;7.59;85.31;98533.22;4927112;28;20046;-69
2020/12/13 13:24:05;;;;;;;4.38;2.60;;;;;;;7.50;86.35;98532.44;4947837;28;20031;-69
2020/12/13 13:26:31;;;;;;;7.03;3.50;;;;;;;7.66;84.04;98527.09;4931052;28;20544;-69
2020/12/13 13:28:57;;;;;;;3.92;3.53;;;;;;;7.67;83.91;98536.53;4942229;28;20028;-69
2020/12/13 13:31:22;;;;;;;8.75;3.00;;;;;;;7.64;83.64;98540.88;4936800;28;20043;-69
2020/12/13 13:33:48;;;;;;;4.22;3.15;;;;;;;7.69;83.54;98531.38;4952544;28;20024;-69
2020/12/13 13:36:14;;;;;;;8.00;2.72;;;;;;;7.68;86.05;98532.22;4938724;28;20129;-69
2020/12/13 13:38:43;;;;;;;6.97;3.50;;;;;;;7.90;82.74;98527.72;4946988;28;20087;-68
2020/12/13 13:41:15;;;;;;;22.13;8.73;;;;;;;8.03;82.32;98528.44;4937724;28;20046;-69
2020/12/13 13:43:44;;;;;;;7.68;4.30;;;;;;;8.15;81.01;98528.28;4953615;28;20487;-69
2020/12/13 13:51:28;;;;;;;6.57;2.50;;;;;;;8.23;82.17;98529.03;4919795;28;20048;-69
2020/12/13 13:53:53;;;;;;;5.25;3.13;;;;;;;8.11;81.82;98539.50;4949296;28;20041;-69
2020/12/13 13:56:20;;;;;;;6.20;2.97;;;;;;;7.95;82.69;98542.25;4939495;28;20042;-69
2020/12/13 13:58:47;;;;;;;6.97;2.90;;;;;;;7.88;80.90;98550.94;4954974;28;20035;-69
2020/12/13 14:01:13;;;;;;;5.88;3.03;;;;;;;7.69;81.71;98549.44;4929770;28;20416;-69
2020/12/13 14:03:38;;;;;;;7.05;3.40;;;;;;;7.52;83.07;98541.84;4955696;28;20039;-68
2020/12/13 14:06:10;;;;;;;8.40;4.07;;;;;;;7.48;83.76;98551.34;4933093;28;20407;-69
2020/12/13 14:08:43;;;;;;;7.47;4.72;;;;;;;7.71;82.00;98558.00;4952096;29;20054;-68
2020/12/13 14:11:10;;;;;;;10.85;4.47;;;;;;;7.64;82.03;98556.34;4925249;28;20508;-68
2020/12/13 14:13:36;;;;;;;7.50;4.20;;;;;;;7.45;83.86;98559.13;4956115;28;20404;-74
2020/12/13 14:16:02;;;;;;;8.60;4.05;;;;;;;7.55;82.87;98561.59;4898155;28;20043;-69
2020/12/13 14:18:27;;;;;;;6.25;3.88;;;;;;;7.42;83.08;98559.13;4936242;29;20032;-69
2020/12/13 14:20:53;;;;;;;4.47;3.20;;;;;;;7.59;82.03;98553.84;4920937;28;20588;-69
2020/12/13 14:23:18;;;;;;;8.30;3.80;;;;;;;7.31;84.43;98562.69;4963538;23;20046;-73
2020/12/13 14:25:44;;;;;;;8.52;3.63;;;;;;;6.95;86.10;98560.34;4938770;28;20057;-74
2020/12/13 14:28:09;;;;;;;6.60;3.63;;;;;;;6.89;84.88;98565.56;4963226;28;20031;-73
2020/12/13 14:30:35;;;;;;;6.38;3.75;;;;;;;6.87;84.51;98566.44;4937686;28;20045;-73
2020/12/13 14:33:00;;;;;;;7.30;4.15;;;;;;;6.93;84.58;98571.53;4959656;28;20090;-73
2020/12/13 14:35:25;;;;;;;6.95;3.42;;;;;;;7.03;84.19;98568.03;4913728;28;20105;-73
2020/12/13 14:37:50;;;;;;;7.55;2.75;;;;;;;6.79;84.09;98570.78;4945916;28;20050;-73
2020/12/13 14:40:18;;;;;;;3.67;3.10;;;;;;;6.80;84.13;98568.19;4919971;28;20039;-73
2020/12/13 14:42:43;;;;;;;8.13;3.03;;;;;;;6.71;85.57;98573.38;4947766;28;20056;-73
2020/12/13 14:45:08;;;;;;;4.03;2.92;;;;;;;6.77;85.67;98580.22;4917314;29;20024;-73
2020/12/13 14:47:34;;;;;;;5.53;3.20;;;;;;;6.74;84.80;98581.09;4916943;29;20064;-73
2020/12/13 14:49:59;;;;;;;5.75;2.85;;;;;;;6.80;85.38;98586.22;4917158;29;20028;-73
2020/12/13 14:52:24;;;;;;;9.35;3.25;;;;;;;6.74;86.21;98583.69;4917072;29;20028;-73
2020/12/13 14:54:50;;;;;;;6.10;3.00;;;;;;;6.69;84.58;98582.84;4916818;29;20681;-73
2020/12/13 14:57:15;;;;;;;6.40;3.38;;;;;;;6.60;85.96;98580.31;4917029;29;20047;-73
2020/12/13 14:59:46;;;;;;;10.73;5.28;;;;;;;6.62;85.82;98581.16;4917176;29;20024;-72
2020/12/13 15:02:12;;;;;;;19.75;6.38;;;;;;;6.59;87.50;98586.34;4916914;29;20035;-73
2020/12/13 15:04:37;;;;;;;25.60;8.18;;;;;;;6.83;86.98;98575.91;4916779;29;20363;-73
2020/12/13 15:07:02;;;;;;;32.65;9.30;;;;;;;6.64;87.07;98579.44;4916841;29;20036;-73
2020/12/13 15:09:28;;;;;;;19.50;7.63;;;;;;;6.63;87.86;98585.47;4915672;29;20080;-73
2020/12/13 15:11:54;;;;;;;22.80;7.72;;;;;;;6.62;89.19;98588.88;4916861;29;20035;-73
2020/12/13 15:17:00;;;;;;;14.43;6.07;;;;;;;6.49;91.27;98585.53;4916752;29;20115;-73
2020/12/13 15:19:26;;;;;;;10.60;5.90;;;;;;;6.48;90.03;98585.53;4916714;29;20036;-73
2020/12/13 15:21:54;;;;;;;10.90;5.68;;;;;;;6.35;90.79;98588.16;4916742;29;20095;-73
2020/12/13 15:24:19;;;;;;;12.02;4.93;;;;;;;6.33;90.29;98600.16;4915452;29;20080;-72
2020/12/13 15:26:45;;;;;;;9.30;3.90;;;;;;;6.27;90.07;98600.19;4916594;29;20032;-72
2020/12/13 15:29:10;;;;;;;8.57;4.53;;;;;;;6.18;91.12;98601.06;4916601;29;20440;-72
2020/12/13 15:31:37;;;;;;;7.03;3.88;;;;;;;6.20;90.21;98598.53;4916931;29;20063;-72
2020/12/13 15:34:03;;;;;;;7.80;4.30;;;;;;;6.27;91.35;98595.06;4916364;29;20485;-72
2020/12/13 15:36:28;;;;;;;9.82;5.40;;;;;;;6.28;89.96;98590.75;4916340;29;20114;-72
2020/12/13 15:38:54;;;;;;;10.52;5.07;;;;;;;6.25;90.21;98596.78;4916457;29;20043;-73
2020/12/13 15:41:19;;;;;;;9.05;4.93;;;;;;;6.26;90.35;98595.91;4915138;29;20054;-72
2020/12/13 15:43:45;;;;;;;10.70;6.40;;;;;;;6.30;89.71;98592.47;4916038;29;20032;-73
2020/12/13 15:46:10;;;;;;;11.18;5.63;;;;;;;6.28;90.28;98596.75;4914839;29;20036;-72
2020/12/13 15:48:35;;;;;;;13.90;5.85;;;;;;;6.29;90.31;98600.22;4899441;29;20032;-72
2020/12/13 15:51:02;;;;;;;10.48;5.47;;;;;;;6.29;90.28;98593.34;4916178;29;20064;-72
2020/12/13 15:53:27;;;;;;;14.93;5.95;;;;;;;6.28;90.80;98590.75;4915926;29;20024;-73
2020/12/13 15:55:52;;;;;;;12.68;7.00;;;;;;;6.27;90.54;98595.06;4916056;29;20098;-72
2020/12/13 15:58:19;;;;;;;15.82;6.80;;;;;;;6.33;90.84;98600.16;4922068;29;20504;-73
2020/12/13 16:00:44;;;;;;;14.35;7.07;;;;;;;6.38;90.44;98595.88;4916283;29;20020;-73
2020/12/13 16:03:10;;;;;;;10.02;6.32;;;;;;;6.24;91.63;98595.09;4915824;29;20390;-72
2020/12/13 16:05:37;;;;;;;13.02;6.80;;;;;;;6.22;91.04;98601.06;4915824;29;20693;-73
2020/12/13 16:08:06;;;;;;;14.40;7.72;;;;;;;6.13;92.68;98602.81;4915908;29;20099;-73
2020/12/13 16:10:32;;;;;;;12.48;7.82;;;;;;;6.33;91.99;98605.31;4915777;29;20024;-72
2020/12/13 16:13:01;;;;;;;15.57;8.90;;;;;;;6.26;91.52;98600.22;4914834;29;20032;-72
2020/12/13 16:15:32;;;;;;;16.92;9.00;;;;;;;6.13;91.62;98602.81;4915598;29;20028;-72
2020/12/13 16:17:58;;;;;;;11.45;6.38;;;;;;;6.27;89.31;98605.34;4914538;29;20115;-72
2020/12/13 16:20:24;;;;;;;12.05;5.90;;;;;;;5.91;90.24;98609.75;4915545;29;20073;-72
2020/12/13 16:22:54;;;;;;;9.75;5.68;;;;;;;5.96;91.49;98609.72;4915283;29;20034;-72
2020/12/13 16:25:20;;;;;;;22.05;11.00;;;;;;;5.89;92.16;98608.84;4915652;29;20028;-72
2020/12/13 16:27:49;;;;;;;17.60;10.35;;;;;;;5.85;93.30;98602.03;4915516;29;20133;-72
2020/12/13 16:30:17;;;;;;;14.77;10.02;;;;;;;5.86;93.07;98603.72;4915081;29;20032;-72
2020/12/13 16:32:42;;;;;;;15.55;8.65;;;;;;;5.90;92.99;98600.28;4915119;29;20024;-72
2020/12/13 16:35:07;;;;;;;16.52;9.00;;;;;;;5.86;93.00;98606.28;4915328;29;20115;-73
2020/12/13 16:37:33;;;;;;;23.15;13.65;;;;;;;5.89;92.34;98600.28;4914002;29;20032;-73
2020/12/13 16:39:58;;;;;;;20.90;14.45;;;;;;;5.80;92.57;98600.28;4915304;29;20024;-72
2020/12/13 16:42:38;;;;;;;21.75;14.07;;;;;;;5.85;92.77;98599.44;4915304;29;20469;-72
2020/12/13 16:45:04;;;;;;;16.42;9.98;;;;;;;5.87;92.85;98594.28;4915210;29;20032;-73
2020/12/13 16:47:34;;;;;;;15.02;9.13;;;;;;;5.70;92.36;98589.16;4915105;29;20509;-73
2020/12/13 16:55:27;;;;;;;20.05;9.68;;;;;;;5.87;93.41;98595.16;4915144;29;20071;-73
2020/12/13 16:57:53;;;;;;;21.10;13.02;;;;;;;5.73;93.85;98591.75;4915042;29;20489;-73
2020/12/13 17:00:19;;;;;;;17.98;11.30;;;;;;;5.75;93.94;98595.16;4914827;29;20071;-73
2020/12/13 17:02:44;;;;;;;28.27;14.32;;;;;;;5.76;93.23;98596.03;4914786;29;20040;-73
2020/12/13 17:05:10;;;;;;;16.50;9.25;;;;;;;5.66;93.32;98601.19;4913518;29;20052;-73
2020/12/13 17:07:37;;;;;;;16.20;9.48;;;;;;;5.77;93.54;98603.72;4914822;29;20115;-71
2020/12/13 17:10:07;;;;;;;10.55;7.10;;;;;;;5.70;92.30;98602.03;4913602;29;20027;-69
2020/12/13 17:12:32;;;;;;;12.55;7.07;;;;;;;5.72;92.40;98597.75;4914536;29;20485;-75
2020/12/13 17:14:58;;;;;;;11.07;6.20;;;;;;;5.65;92.12;98591.75;4914860;29;20083;-69
2020/12/13 17:17:23;;;;;;;16.77;6.97;;;;;;;5.60;93.19;98596.03;4915014;29;20445;-71
2020/12/13 17:19:48;;;;;;;17.90;9.90;;;;;;;5.72;92.50;98600.31;4914950;29;20024;-71
2020/12/13 17:22:14;;;;;;;30.67;17.63;;;;;;;5.76;92.71;98591.75;4914857;29;20397;-72
2020/12/13 17:24:39;;;;;;;33.15;18.45;;;;;;;5.78;92.19;98602.03;4914325;29;20450;-72
2020/12/13 17:27:04;;;;;;;21.33;15.25;;;;;;;5.78;92.89;98605.44;4913251;29;20115;-72
2020/12/13 17:29:30;;;;;;;19.90;11.85;;;;;;;5.83;93.24;98601.16;4914615;29;20115;-72
2020/12/13 17:31:58;;;;;;;21.90;11.35;;;;;;;5.80;93.61;98608.88;4914510;29;20095;-71
2020/12/13 17:34:23;;;;;;;16.58;11.13;;;;;;;5.88;93.46;98606.28;4914345;29;20024;-72
2020/12/13 17:36:49;;;;;;;19.05;11.60;;;;;;;5.86;92.68;98608.88;4914484;29;20075;-72
2020/12/13 17:39:14;;;;;;;17.38;11.00;;;;;;;5.95;92.57;98612.28;4914542;29;20142;-72
2020/12/13 17:41:41;;;;;;;14.57;10.05;;;;;;;5.93;92.49;98610.59;4914518;29;20062;-72
2020/12/13 17:44:22;;;;;;;18.65;9.70;;;;;;;5.93;92.60;98604.59;4914146;29;20601;-72
2020/12/13 17:46:47;;;;;;;12.20;7.93;;;;;;;5.86;93.62;98608.88;4914929;29;20037;-72
2020/12/13 17:49:15;;;;;;;13.75;8.52;;;;;;;5.89;93.67;98607.97;4918309;29;20032;-72
2020/12/13 17:57:06;;;;;;;34.70;18.83;;;;;;;5.74;94.22;98619.16;4918260;29;20028;-72
2020/12/13 17:59:35;;;;;;;24.65;14.90;;;;;;;5.86;94.19;98620.88;4918336;29;20035;-72
2020/12/13 18:02:00;;;;;;;24.88;13.65;;;;;;;5.91;94.13;98622.59;4918282;29;20024;-72
2020/12/13 18:04:26;;;;;;;24.30;13.68;;;;;;;5.95;94.39;98617.44;4917855;29;20035;-72
2020/12/13 18:06:51;;;;;;;25.83;14.27;;;;;;;5.93;94.20;98618.28;4917851;29;20043;-72
2020/12/13 18:09:17;;;;;;;23.92;15.10;;;;;;;5.90;94.12;98626.00;4917942;29;20035;-71
2020/12/13 18:11:42;;;;;;;24.77;15.70;;;;;;;5.89;94.07;98619.13;4917723;29;20024;-71
2020/12/13 18:14:08;;;;;;;28.13;15.65;;;;;;;5.84;93.76;98615.72;4917781;29;20032;-71
2020/12/13 18:16:33;;;;;;;27.88;17.35;;;;;;;5.77;93.77;98615.75;4917817;29;20028;-71
2020/12/13 18:18:59;;;;;;;24.98;16.00;;;;;;;5.71;94.29;98619.19;4918000;29;20039;-72
2020/12/13 18:21:25;;;;;;;27.45;15.95;;;;;;;5.60;94.29;98621.72;4917776;29;20024;-71
2020/12/13 18:23:51;;;;;;;19.98;11.52;;;;;;;5.53;94.35;98616.63;4917408;29;20040;-72
2020/12/13 18:26:17;;;;;;;18.98;11.18;;;;;;;5.42;94.72;98608.91;4917465;29;20084;-71
2020/12/13 18:28:47;;;;;;;18.35;10.15;;;;;;;5.28;95.42;98608.91;4917735;29;20025;-72
2020/12/13 18:31:12;;;;;;;;;;;;;;;5.17;96.17;98610.59;4918056;29;20036;-72
2020/12/13 18:33:38;;;;;;;23.42;14.13;;;;;;;5.14;96.40;98605.47;4917439;29;19911;-71
2020/12/13 18:36:05;;;;;;;26.23;13.63;;;;;;;5.05;96.83;98597.75;4917609;29;20032;-71
2020/12/13 18:38:33;;;;;;;22.63;14.10;;;;;;;5.02;96.67;98602.88;4917347;29;20039;-72
2020/12/13 18:40:59;;;;;;;24.75;15.95;;;;;;;4.88;97.13;98606.31;4917396;29;20053;-71
2020/12/13 18:43:24;;;;;;;24.35;14.48;;;;;;;4.84;97.14;98606.28;4917171;29;20168;-71
2020/12/13 18:45:49;;;;;;;42.90;25.63;;;;;;;4.72;97.31;98601.13;4917344;29;20123;-72
2020/12/13 18:48:15;;;;;;;25.48;16.42;;;;;;;4.68;97.66;98605.38;4917285;29;20027;-71
2020/12/13 18:50:47;;;;;;;22.50;15.98;;;;;;;4.62;97.75;98602.81;4917498;29;20772;-71
2020/12/13 18:53:16;;;;;;;24.42;15.82;;;;;;;4.53;97.57;98605.34;4916972;29;20379;-71
2020/12/13 18:55:43;;;;;;;17.35;12.18;;;;;;;4.55;97.58;98609.63;4917198;29;20028;-71
2020/12/13 18:58:08;;;;;;;19.98;12.77;;;;;;;4.50;97.65;98610.47;4916658;29;20529;-72